Time;durP1;ratioP1;P1;durP2;ratioP2;P2;SDS_P1;SDS_P2;PMS_P1;PMS_P2;Temp;Humidity;BMP_temperature;BMP_pressure;BME280_temperature;BME280_humidity;BME280_pressure;Samples;Min_cycle;Max_cycle;Signal;HPM_P1;HPM_P2
2021/08/29 00:00:06;;;;;;;9.75;8.20;;;;;;;;;;5092112;28;20028;-58
2021/08/29 00:02:31;;;;;;;8.90;8.00;;;;;;;;;;5074001;28;20032;-58
2021/08/29 00:04:56;;;;;;;9.52;8.60;;;;;;;;;;5091232;28;20034;-58
2021/08/29 00:07:22;;;;;;;9.05;7.88;;;;;;;;;;5088092;28;20421;-57
2021/08/29 00:09:47;;;;;;;7.93;7.22;;;;;;;;;;5085361;28;20458;-59
2021/08/29 00:12:12;;;;;;;8.35;7.60;;;;;;;;;;5091385;28;20020;-59
2021/08/29 00:14:37;;;;;;;7.80;7.03;;;;;;;;;;5091948;28;20043;-58
2021/08/29 00:17:03;;;;;;;9.07;8.20;;;;;;;;;;5091452;28;20008;-59
2021/08/29 00:19:28;;;;;;;9.48;7.43;;;;;;;;;;5090795;28;20084;-59
2021/08/29 00:21:53;;;;;;;9.18;7.90;;;;;;;;;;5091609;28;20530;-59
2021/08/29 00:24:18;;;;;;;8.73;7.82;;;;;;;;;;5091575;28;20056;-58
2021/08/29 00:26:44;;;;;;;8.13;7.30;;;;;;;;;;5091595;28;20031;-58
2021/08/29 00:29:09;;;;;;;8.75;7.95;;;;;;;;;;5090464;28;20056;-58
2021/08/29 00:31:34;;;;;;;7.85;6.93;;;;;;;;;;5071477;28;20099;-57
2021/08/29 00:33:59;;;;;;;8.40;7.50;;;;;;;;;;5070894;28;20107;-57
2021/08/29 00:36:24;;;;;;;7.03;6.43;;;;;;;;;;5069620;28;20055;-57
2021/08/29 00:38:50;;;;;;;8.05;7.28;;;;;;;;;;5070303;28;20016;-58
2021/08/29 00:41:15;;;;;;;8.23;7.13;;;;;;;;;;5071109;28;20100;-58
2021/08/29 00:43:40;;;;;;;9.30;8.32;;;;;;;;;;5071356;28;20035;-57
2021/08/29 00:46:06;;;;;;;8.45;7.43;;;;;;;;;;5071192;28;20418;-58
2021/08/29 00:48:31;;;;;;;8.30;7.47;;;;;;;;;;5071146;28;20447;-58
2021/08/29 00:50:56;;;;;;;7.68;6.97;;;;;;;;;;5067380;28;20032;-58
2021/08/29 00:53:22;;;;;;;8.75;7.78;;;;;;;;;;5064080;28;20029;-58
2021/08/29 00:55:53;;;;;;;7.50;6.82;;;;;;;;;;5071214;28;20034;-59
2021/08/29 00:58:25;;;;;;;6.88;6.28;;;;;;;;;;5071353;28;20382;-58
2021/08/29 01:00:51;;;;;;;7.60;6.90;;;;;;;;;;5074484;28;20012;-58
2021/08/29 01:03:21;;;;;;;6.75;6.07;;;;;;;;;;5071888;28;20021;-58
2021/08/29 01:05:49;;;;;;;6.45;5.85;;;;;;;;;;5070836;28;20020;-58
2021/08/29 01:08:17;;;;;;;6.28;5.68;;;;;;;;;;5076941;28;20076;-58
2021/08/29 01:10:55;;;;;;;6.63;6.03;;;;;;;;;;5079479;28;20103;-58
2021/08/29 01:13:32;;;;;;;5.60;5.10;;;;;;;;;;5067267;28;20021;-59
2021/08/29 01:16:00;;;;;;;6.32;5.68;;;;;;;;;;5063515;28;20017;-58
2021/08/29 01:18:27;;;;;;;5.70;5.20;;;;;;;;;;5071151;28;20021;-58
2021/08/29 01:20:55;;;;;;;6.45;5.75;;;;;;;;;;5052617;28;20029;-59
2021/08/29 01:23:21;;;;;;;5.75;5.32;;;;;;;;;;5070649;28;20112;-58
2021/08/29 01:25:54;;;;;;;5.57;5.07;;;;;;;;;;5070419;28;20566;-58
2021/08/29 01:28:22;;;;;;;5.30;4.80;;;;;;;;;;5079877;28;20127;-57
2021/08/29 01:30:47;;;;;;;4.82;4.43;;;;;;;;;;5074521;28;20485;-57
2021/08/29 01:33:13;;;;;;;7.25;5.55;;;;;;;;;;5094776;28;20020;-58
2021/08/29 01:35:38;;;;;;;5.90;5.32;;;;;;;;;;5094029;28;20028;-58
2021/08/29 01:38:05;;;;;;;7.05;6.35;;;;;;;;;;5094376;28;20482;-58
2021/08/29 01:40:31;;;;;;;7.68;6.85;;;;;;;;;;5094913;28;20471;-58
2021/08/29 01:42:57;;;;;;;7.97;7.00;;;;;;;;;;5094683;28;20023;-58
2021/08/29 01:45:23;;;;;;;9.57;7.40;;;;;;;;;;5094622;28;20013;-58
2021/08/29 01:47:48;;;;;;;11.13;7.90;;;;;;;;;;5094324;28;20036;-58
2021/08/29 01:50:14;;;;;;;13.73;8.52;;;;;;;;;;5094663;28;20089;-57
2021/08/29 01:52:39;;;;;;;12.82;8.63;;;;;;;;;;5094931;28;20111;-58
2021/08/29 01:55:05;;;;;;;19.85;10.13;;;;;;;;;;5114560;28;20020;-58
2021/08/29 01:57:30;;;;;;;19.60;11.35;;;;;;;;;;5114508;28;20508;-58
2021/08/29 01:59:57;;;;;;;24.17;13.10;;;;;;;;;;5114444;28;20019;-57
2021/08/29 02:02:22;;;;;;;21.10;12.70;;;;;;;;;;5115218;28;20377;-58
2021/08/29 02:04:48;;;;;;;29.75;14.02;;;;;;;;;;5114126;28;20023;-57
2021/08/29 02:07:14;;;;;;;22.17;11.98;;;;;;;;;;5115070;28;20535;-58
2021/08/29 02:09:40;;;;;;;24.73;13.63;;;;;;;;;;5114223;28;20027;-57
2021/08/29 02:12:07;;;;;;;27.40;13.68;;;;;;;;;;5111209;28;20095;-58
2021/08/29 02:14:44;;;;;;;26.05;14.10;;;;;;;;;;5114294;28;20039;-56
2021/08/29 02:17:10;;;;;;;36.15;17.42;;;;;;;;;;5114877;28;20027;-57
2021/08/29 02:19:36;;;;;;;31.70;17.02;;;;;;;;;;5121421;27;20494;-59
2021/08/29 02:22:02;;;;;;;26.42;15.65;;;;;;;;;;5114682;28;20068;-58
2021/08/29 02:24:28;;;;;;;27.98;17.15;;;;;;;;;;5114347;28;20031;-58
2021/08/29 02:26:53;;;;;;;29.52;16.95;;;;;;;;;;5114370;28;20027;-58
2021/08/29 02:29:19;;;;;;;34.40;17.17;;;;;;;;;;5114306;28;20500;-57
2021/08/29 02:31:45;;;;;;;33.13;17.13;;;;;;;;;;5114160;28;20020;-56
2021/08/29 02:34:11;;;;;;;32.67;17.02;;;;;;;;;;5113619;28;20490;-57
2021/08/29 02:36:36;;;;;;;30.80;17.33;;;;;;;;;;5114252;28;20469;-58
2021/08/29 02:39:03;;;;;;;31.67;17.38;;;;;;;;;;5114247;28;20355;-57
2021/08/29 02:41:29;;;;;;;30.50;16.00;;;;;;;;;;5113787;28;20107;-58
2021/08/29 02:43:55;;;;;;;35.40;17.55;;;;;;;;;;5113909;28;20110;-55
2021/08/29 02:46:22;;;;;;;36.75;17.98;;;;;;;;;;5112842;28;20062;-58
2021/08/29 02:48:48;;;;;;;39.50;19.42;;;;;;;;;;5113554;28;20027;-58
2021/08/29 02:51:14;;;;;;;31.90;18.33;;;;;;;;;;5113475;28;20290;-58
2021/08/29 02:53:42;;;;;;;41.17;19.60;;;;;;;;;;5113302;28;20027;-58
2021/08/29 02:56:08;;;;;;;38.65;18.55;;;;;;;;;;5095296;28;20474;-58
2021/08/29 02:58:34;;;;;;;51.30;22.80;;;;;;;;;;5113888;28;20024;-58
2021/08/29 03:00:59;;;;;;;45.47;20.45;;;;;;;;;;5113972;28;20470;-57
2021/08/29 03:03:25;;;;;;;39.72;20.30;;;;;;;;;;5113325;28;20131;-58
2021/08/29 03:05:50;;;;;;;38.88;19.73;;;;;;;;;;5106139;28;20031;-57
2021/08/29 03:08:15;;;;;;;35.08;19.67;;;;;;;;;;5113130;28;20020;-58
2021/08/29 03:10:40;;;;;;;36.75;19.75;;;;;;;;;;5113308;28;20157;-57
2021/08/29 03:13:07;;;;;;;36.47;19.92;;;;;;;;;;5113674;28;20023;-58
2021/08/29 03:15:32;;;;;;;37.88;18.90;;;;;;;;;;5113328;28;20485;-58
2021/08/29 03:17:58;;;;;;;37.88;19.00;;;;;;;;;;5113484;28;20031;-58
2021/08/29 03:20:24;;;;;;;38.08;19.85;;;;;;;;;;5100829;28;20024;-58
2021/08/29 03:22:49;;;;;;;42.60;21.58;;;;;;;;;;5102645;28;20023;-58
2021/08/29 03:25:14;;;;;;;32.15;18.58;;;;;;;;;;5101365;28;20122;-58
2021/08/29 03:27:40;;;;;;;36.28;18.83;;;;;;;;;;5113265;28;20160;-58
2021/08/29 03:30:05;;;;;;;33.58;18.40;;;;;;;;;;5113538;28;20020;-59
2021/08/29 03:32:31;;;;;;;31.83;17.98;;;;;;;;;;5113275;28;20027;-59
2021/08/29 03:34:59;;;;;;;29.98;17.70;;;;;;;;;;5111156;28;20470;-59
2021/08/29 03:37:25;;;;;;;31.17;16.92;;;;;;;;;;5113202;28;20095;-59
2021/08/29 03:39:51;;;;;;;31.48;17.40;;;;;;;;;;5112950;28;20098;-59
2021/08/29 03:42:18;;;;;;;26.65;15.95;;;;;;;;;;5112985;28;20095;-58
2021/08/29 03:44:43;;;;;;;29.30;16.58;;;;;;;;;;5112891;28;20035;-58
2021/08/29 03:47:09;;;;;;;23.65;14.50;;;;;;;;;;5112411;28;20058;-59
2021/08/29 03:49:34;;;;;;;25.23;14.48;;;;;;;;;;5103770;28;20024;-59
2021/08/29 03:52:00;;;;;;;22.08;13.05;;;;;;;;;;5110399;28;20035;-59
2021/08/29 03:54:25;;;;;;;20.48;13.48;;;;;;;;;;5112440;28;20024;-58
2021/08/29 03:56:51;;;;;;;20.63;13.38;;;;;;;;;;5112551;28;20020;-58
2021/08/29 03:59:16;;;;;;;20.65;12.43;;;;;;;;;;5112808;28;20020;-58
2021/08/29 04:01:41;;;;;;;18.38;11.88;;;;;;;;;;5112942;28;20405;-58
2021/08/29 04:04:07;;;;;;;20.55;13.57;;;;;;;;;;5112399;28;20046;-58
2021/08/29 04:06:33;;;;;;;21.02;12.52;;;;;;;;;;5112099;28;20027;-58
2021/08/29 04:09:02;;;;;;;22.80;12.95;;;;;;;;;;5112262;28;20034;-58
2021/08/29 04:11:28;;;;;;;19.95;12.57;;;;;;;;;;5098183;28;20363;-57
2021/08/29 04:13:53;;;;;;;20.92;12.95;;;;;;;;;;5112382;28;20028;-57
2021/08/29 04:16:19;;;;;;;18.80;12.57;;;;;;;;;;5102962;28;20490;-56
2021/08/29 04:18:45;;;;;;;21.17;12.68;;;;;;;;;;5094169;28;20047;-57
2021/08/29 04:21:11;;;;;;;18.35;11.75;;;;;;;;;;5111893;28;20023;-58
2021/08/29 04:23:36;;;;;;;17.15;11.23;;;;;;;;;;5112459;28;20377;-58
2021/08/29 04:26:01;;;;;;;23.05;13.15;;;;;;;;;;5111717;28;20027;-58
2021/08/29 04:28:27;;;;;;;18.95;11.88;;;;;;;;;;5091058;28;20040;-58
2021/08/29 04:30:54;;;;;;;19.90;12.55;;;;;;;;;;5071583;28;20413;-58
2021/08/29 04:33:19;;;;;;;18.67;12.38;;;;;;;;;;5072091;28;20028;-58
2021/08/29 04:35:44;;;;;;;19.75;12.00;;;;;;;;;;5070887;28;20471;-58
2021/08/29 04:38:09;;;;;;;17.70;12.45;;;;;;;;;;5071637;28;20078;-58
2021/08/29 04:40:35;;;;;;;18.33;11.77;;;;;;;;;;5071513;28;20028;-58
2021/08/29 04:43:00;;;;;;;16.30;11.38;;;;;;;;;;5071727;28;20478;-58
2021/08/29 04:45:26;;;;;;;16.92;13.18;;;;;;;;;;5070931;28;20044;-58
2021/08/29 04:47:51;;;;;;;18.30;12.10;;;;;;;;;;5071837;28;20095;-58
2021/08/29 04:50:17;;;;;;;15.30;10.55;;;;;;;;;;5071157;28;20028;-58
2021/08/29 04:52:42;;;;;;;17.48;11.85;;;;;;;;;;5071563;28;20410;-58
2021/08/29 04:55:07;;;;;;;15.93;11.13;;;;;;;;;;5071300;28;20036;-58
2021/08/29 04:57:32;;;;;;;16.85;11.27;;;;;;;;;;5072108;28;20016;-59
2021/08/29 04:59:58;;;;;;;16.08;11.30;;;;;;;;;;5077952;28;20036;-58
2021/08/29 05:02:23;;;;;;;14.93;10.98;;;;;;;;;;5071945;28;20031;-58
2021/08/29 05:04:48;;;;;;;15.80;11.07;;;;;;;;;;5073420;28;20471;-58
2021/08/29 05:07:13;;;;;;;15.30;11.77;;;;;;;;;;5075278;28;20525;-58
2021/08/29 05:09:38;;;;;;;16.23;11.45;;;;;;;;;;5075401;28;20479;-59
2021/08/29 05:12:04;;;;;;;14.60;11.60;;;;;;;;;;5090283;28;20032;-59
2021/08/29 05:14:29;;;;;;;12.43;10.07;;;;;;;;;;5095455;28;20062;-59
2021/08/29 05:16:54;;;;;;;13.70;10.13;;;;;;;;;;5077243;28;20013;-58
2021/08/29 05:19:20;;;;;;;15.95;12.23;;;;;;;;;;5074482;28;20023;-57
2021/08/29 05:21:45;;;;;;;15.32;11.93;;;;;;;;;;5074808;28;20025;-58
2021/08/29 05:24:11;;;;;;;15.25;11.35;;;;;;;;;;5074970;28;20383;-58
2021/08/29 05:26:37;;;;;;;15.82;11.10;;;;;;;;;;5074475;28;20031;-59
2021/08/29 05:29:02;;;;;;;14.93;10.75;;;;;;;;;;5090055;28;20082;-57
2021/08/29 05:31:27;;;;;;;13.70;11.15;;;;;;;;;;5095513;28;20040;-58
2021/08/29 05:33:52;;;;;;;13.75;11.38;;;;;;;;;;5095297;28;20024;-58
2021/08/29 05:36:18;;;;;;;13.98;11.68;;;;;;;;;;5094617;28;20024;-58
2021/08/29 05:38:43;;;;;;;13.63;10.95;;;;;;;;;;5104861;28;20032;-58
2021/08/29 05:41:08;;;;;;;15.00;11.63;;;;;;;;;;5108063;28;20016;-59
2021/08/29 05:43:33;;;;;;;13.30;11.27;;;;;;;;;;5095216;28;20129;-58
2021/08/29 05:45:58;;;;;;;15.27;12.18;;;;;;;;;;5094374;28;20545;-59
2021/08/29 05:48:24;;;;;;;13.18;11.27;;;;;;;;;;5095142;28;20039;-58
2021/08/29 05:50:49;;;;;;;13.50;10.68;;;;;;;;;;5094394;28;20028;-59
2021/08/29 05:53:14;;;;;;;12.05;10.10;;;;;;;;;;5094799;28;20031;-59
2021/08/29 05:55:39;;;;;;;13.40;10.35;;;;;;;;;;5094195;28;20020;-58
2021/08/29 05:58:05;;;;;;;14.48;9.68;;;;;;;;;;5098412;28;20016;-59
2021/08/29 06:00:30;;;;;;;11.57;9.98;;;;;;;;;;5115060;28;20022;-59
2021/08/29 06:02:55;;;;;;;11.43;10.10;;;;;;;;;;5101872;28;20364;-58
2021/08/29 06:05:20;;;;;;;12.45;9.88;;;;;;;;;;5093612;28;20035;-59
2021/08/29 06:07:46;;;;;;;11.15;10.00;;;;;;;;;;5094768;28;20031;-59
2021/08/29 06:10:12;;;;;;;14.27;9.60;;;;;;;;;;5093921;28;20040;-59
2021/08/29 06:12:38;;;;;;;13.82;9.73;;;;;;;;;;5096685;28;20070;-59
2021/08/29 06:15:04;;;;;;;10.35;8.73;;;;;;;;;;5098395;28;20136;-59
2021/08/29 06:17:29;;;;;;;10.38;8.07;;;;;;;;;;5094008;28;20016;-59
2021/08/29 06:19:54;;;;;;;8.60;7.80;;;;;;;;;;5093660;28;20017;-59
2021/08/29 06:22:19;;;;;;;10.27;7.68;;;;;;;;;;5094082;28;20024;-59
2021/08/29 06:24:44;;;;;;;6.30;5.78;;;;;;;;;;5094043;28;20031;-58
2021/08/29 06:27:10;;;;;;;6.78;6.18;;;;;;;;;;5093955;28;20103;-59
2021/08/29 06:29:35;;;;;;;7.05;6.10;;;;;;;;;;5109591;28;20451;-59
2021/08/29 06:32:01;;;;;;;7.03;6.43;;;;;;;;;;5114868;28;20043;-59
2021/08/29 06:34:26;;;;;;;6.93;6.32;;;;;;;;;;5113857;28;20077;-59
2021/08/29 06:36:52;;;;;;;12.63;10.90;;;;;;;;;;5100151;28;20062;-59
2021/08/29 06:39:17;;;;;;;9.85;8.88;;;;;;;;;;5094068;28;20081;-59
2021/08/29 06:41:42;;;;;;;10.90;9.80;;;;;;;;;;5103846;28;20377;-58
2021/08/29 06:44:07;;;;;;;10.60;9.48;;;;;;;;;;5114202;28;20465;-58
2021/08/29 06:46:32;;;;;;;10.43;9.43;;;;;;;;;;5104079;28;20044;-58
2021/08/29 06:48:58;;;;;;;9.98;8.98;;;;;;;;;;5093789;28;20452;-58
2021/08/29 06:51:23;;;;;;;7.68;6.97;;;;;;;;;;5093398;28;20020;-58
2021/08/29 06:53:48;;;;;;;8.98;7.18;;;;;;;;;;5093186;28;20425;-58
2021/08/29 06:56:14;;;;;;;8.07;7.20;;;;;;;;;;5093356;28;20039;-57
2021/08/29 06:58:39;;;;;;;10.02;9.02;;;;;;;;;;5094299;28;20028;-59
2021/08/29 07:01:05;;;;;;;9.30;8.32;;;;;;;;;;5093499;28;20507;-58
2021/08/29 07:03:30;;;;;;;11.10;10.02;;;;;;;;;;5093268;28;20034;-58
2021/08/29 07:05:55;;;;;;;11.57;9.77;;;;;;;;;;5092462;28;20382;-58
2021/08/29 07:08:20;;;;;;;13.13;11.57;;;;;;;;;;5093597;28;20473;-59
2021/08/29 07:10:45;;;;;;;13.13;11.82;;;;;;;;;;5092870;28;20028;-58
2021/08/29 07:13:11;;;;;;;14.98;12.48;;;;;;;;;;5093267;28;20111;-57
2021/08/29 07:15:36;;;;;;;14.27;11.93;;;;;;;;;;5092199;28;20386;-59
2021/08/29 07:18:01;;;;;;;13.13;10.98;;;;;;;;;;5093255;28;20319;-58
2021/08/29 07:20:26;;;;;;;13.38;11.30;;;;;;;;;;5091509;28;20069;-58
2021/08/29 07:22:51;;;;;;;13.75;10.57;;;;;;;;;;5093194;28;20020;-58
2021/08/29 07:25:17;;;;;;;11.38;9.95;;;;;;;;;;5091749;28;20020;-59
2021/08/29 07:27:42;;;;;;;10.90;8.98;;;;;;;;;;5092810;28;20055;-59
2021/08/29 07:30:07;;;;;;;10.52;9.52;;;;;;;;;;5092862;28;20081;-58
2021/08/29 07:32:32;;;;;;;10.40;8.88;;;;;;;;;;5108889;28;20509;-58
2021/08/29 07:34:58;;;;;;;9.20;8.25;;;;;;;;;;5092179;28;20494;-58
2021/08/29 07:37:23;;;;;;;10.00;9.00;;;;;;;;;;5092774;28;20047;-58
2021/08/29 07:39:49;;;;;;;10.35;9.35;;;;;;;;;;5092253;28;20057;-58
2021/08/29 07:42:14;;;;;;;11.32;9.48;;;;;;;;;;5092879;28;20107;-58
2021/08/29 07:44:40;;;;;;;12.07;10.40;;;;;;;;;;5092234;28;20111;-59
2021/08/29 07:47:05;;;;;;;10.93;8.93;;;;;;;;;;5074236;28;20172;-57
2021/08/29 07:49:30;;;;;;;10.88;9.82;;;;;;;;;;5092366;28;20028;-59
2021/08/29 07:51:55;;;;;;;12.43;10.52;;;;;;;;;;5091907;28;20543;-57
2021/08/29 07:54:20;;;;;;;10.70;9.65;;;;;;;;;;5083358;28;20530;-57
2021/08/29 07:56:46;;;;;;;11.10;9.32;;;;;;;;;;5074114;28;20024;-57
2021/08/29 07:59:11;;;;;;;8.98;8.02;;;;;;;;;;5083309;28;20024;-59
2021/08/29 08:01:36;;;;;;;9.80;8.80;;;;;;;;;;5082658;28;20024;-58
2021/08/29 08:04:01;;;;;;;8.57;7.78;;;;;;;;;;5091259;28;20605;-60
2021/08/29 08:06:26;;;;;;;9.23;8.43;;;;;;;;;;5072967;28;20031;-58
2021/08/29 08:08:53;;;;;;;8.40;7.60;;;;;;;;;;5091513;28;20059;-58
2021/08/29 08:11:18;;;;;;;7.05;6.45;;;;;;;;;;5088135;28;20736;-58
2021/08/29 08:13:43;;;;;;;5.90;5.40;;;;;;;;;;5092249;28;20040;-57
2021/08/29 08:16:08;;;;;;;6.50;5.97;;;;;;;;;;5084151;28;20097;-59
2021/08/29 08:18:34;;;;;;;6.20;5.60;;;;;;;;;;5091950;28;20073;-59
2021/08/29 08:20:59;;;;;;;5.60;5.10;;;;;;;;;;5091587;28;20394;-59
2021/08/29 08:23:24;;;;;;;5.22;4.82;;;;;;;;;;5092176;28;20031;-59
2021/08/29 08:25:49;;;;;;;5.32;4.93;;;;;;;;;;5091754;28;20024;-57
2021/08/29 08:28:14;;;;;;;5.15;4.75;;;;;;;;;;5091202;28;20055;-58
2021/08/29 08:30:40;;;;;;;5.47;5.07;;;;;;;;;;5091322;28;20031;-58
2021/08/29 08:33:05;;;;;;;4.88;4.53;;;;;;;;;;5092246;28;20069;-57
2021/08/29 08:35:30;;;;;;;4.97;3.85;;;;;;;;;;5090508;28;20445;-58
2021/08/29 08:37:55;;;;;;;4.93;4.43;;;;;;;;;;5094695;28;20008;-59
2021/08/29 08:40:21;;;;;;;5.63;4.72;;;;;;;;;;5092736;28;20254;-59
2021/08/29 08:42:47;;;;;;;5.57;5.18;;;;;;;;;;5091493;28;20088;-59
2021/08/29 08:45:12;;;;;;;4.63;4.22;;;;;;;;;;5091658;28;20473;-59
2021/08/29 08:47:41;;;;;;;4.97;4.57;;;;;;;;;;5091125;28;20103;-58
2021/08/29 08:50:07;;;;;;;4.70;4.30;;;;;;;;;;5091185;28;20266;-58
2021/08/29 08:52:32;;;;;;;4.18;3.88;;;;;;;;;;5090273;28;20545;-59
2021/08/29 08:55:01;;;;;;;4.55;4.25;;;;;;;;;;5090315;28;20024;-59
2021/08/29 08:57:26;;;;;;;4.75;4.30;;;;;;;;;;5090983;28;20016;-60
2021/08/29 08:59:52;;;;;;;4.22;3.83;;;;;;;;;;5090697;28;20524;-58
2021/08/29 09:02:21;;;;;;;4.35;4.00;;;;;;;;;;5098819;28;20019;-56
2021/08/29 09:04:47;;;;;;;3.90;3.60;;;;;;;;;;5099791;28;20039;-58
2021/08/29 09:07:12;;;;;;;4.22;3.90;;;;;;;;;;5097191;28;20013;-59
2021/08/29 09:09:40;;;;;;;4.50;4.10;;;;;;;;;;5091358;28;20031;-58
2021/08/29 09:12:05;;;;;;;4.15;3.85;;;;;;;;;;5094153;28;20027;-58
2021/08/29 09:14:37;;;;;;;5.03;4.57;;;;;;;;;;5111633;28;20019;-58
2021/08/29 09:17:03;;;;;;;3.80;3.50;;;;;;;;;;5076325;28;20359;-58
2021/08/29 09:19:28;;;;;;;5.13;3.80;;;;;;;;;;5090491;28;20015;-57
2021/08/29 09:21:56;;;;;;;3.60;3.30;;;;;;;;;;5098751;28;20020;-58
2021/08/29 09:24:28;;;;;;;4.40;4.00;;;;;;;;;;5111811;28;20280;-58
2021/08/29 09:26:59;;;;;;;3.55;3.25;;;;;;;;;;5094440;28;20020;-58
2021/08/29 09:29:24;;;;;;;4.18;3.78;;;;;;;;;;5091361;28;20048;-58
2021/08/29 09:31:50;;;;;;;3.70;3.40;;;;;;;;;;5093339;28;20073;-59
2021/08/29 09:34:19;;;;;;;3.70;3.40;;;;;;;;;;5105455;28;20028;-58
2021/08/29 09:36:44;;;;;;;2.90;2.70;;;;;;;;;;5106441;28;20431;-59
2021/08/29 09:39:14;;;;;;;2.83;2.63;;;;;;;;;;5100144;28;20099;-58
2021/08/29 09:41:39;;;;;;;3.10;2.90;;;;;;;;;;5090748;28;20020;-58
2021/08/29 09:44:10;;;;;;;2.90;2.70;;;;;;;;;;5099203;28;20092;-58
2021/08/29 09:46:52;;;;;;;2.90;2.35;;;;;;;;;;5090598;28;20020;-59
2021/08/29 09:49:23;;;;;;;2.50;2.30;;;;;;;;;;5090783;28;20543;-58
2021/08/29 09:51:49;;;;;;;2.63;2.42;;;;;;;;;;5092570;28;20020;-58
2021/08/29 09:54:34;;;;;;;2.70;2.50;;;;;;;;;;5095403;28;20074;-57
2021/08/29 09:57:00;;;;;;;3.00;2.80;;;;;;;;;;5094534;28;20039;-58
2021/08/29 09:59:42;;;;;;;2.67;2.47;;;;;;;;;;5094560;28;20466;-60
2021/08/29 10:02:09;;;;;;;2.78;2.58;;;;;;;;;;5097083;28;20035;-60
2021/08/29 10:04:34;;;;;;;2.92;2.72;;;;;;;;;;5098236;28;20517;-59
2021/08/29 10:07:15;;;;;;;2.35;2.15;;;;;;;;;;5079027;28;20120;-59
2021/08/29 10:09:41;;;;;;;2.45;2.20;;;;;;;;;;5094413;28;20385;-58
2021/08/29 10:12:07;;;;;;;2.17;2.08;;;;;;;;;;5094200;28;20016;-58
2021/08/29 10:14:34;;;;;;;2.10;2.00;;;;;;;;;;5093544;28;20034;-59
2021/08/29 10:16:59;;;;;;;2.97;1.92;;;;;;;;;;5075397;28;20016;-59
2021/08/29 10:19:26;;;;;;;2.20;1.98;;;;;;;;;;5075811;28;20559;-58
2021/08/29 10:21:52;;;;;;;2.03;1.92;;;;;;;;;;5093684;28;20024;-58
2021/08/29 10:24:19;;;;;;;1.85;1.50;;;;;;;;;;5098871;28;20016;-58
2021/08/29 10:26:44;;;;;;;1.50;1.40;;;;;;;;;;5088908;28;20404;-58
2021/08/29 10:29:13;;;;;;;1.70;1.30;;;;;;;;;;5093779;28;20132;-58
2021/08/29 10:31:43;;;;;;;1.10;0.98;;;;;;;;;;5096366;28;20038;-58
2021/08/29 10:34:08;;;;;;;1.27;1.20;;;;;;;;;;5113193;28;20023;-57
2021/08/29 10:36:35;;;;;;;1.40;1.30;;;;;;;;;;5113106;28;20451;-58
2021/08/29 10:39:00;;;;;;;1.40;1.30;;;;;;;;;;5094286;28;20023;-58
2021/08/29 10:41:25;;;;;;;2.47;1.60;;;;;;;;;;5093398;28;20020;-58
2021/08/29 10:43:51;;;;;;;1.75;1.63;;;;;;;;;;5093880;28;20046;-58
2021/08/29 10:46:17;;;;;;;1.15;1.15;;;;;;;;;;5075288;28;20039;-58
2021/08/29 10:48:44;;;;;;;1.45;1.20;;;;;;;;;;5093961;28;20027;-58
2021/08/29 10:51:10;;;;;;;1.25;1.08;;;;;;;;;;5093174;28;20136;-59
2021/08/29 10:53:56;;;;;;;1.05;1.00;;;;;;;;;;5093836;28;20485;-58
2021/08/29 10:56:32;;;;;;;1.35;1.08;;;;;;;;;;5092498;28;20115;-59
2021/08/29 10:59:20;;;;;;;1.75;0.90;;;;;;;;;;5093646;28;20375;-58
2021/08/29 11:01:46;;;;;;;1.13;0.80;;;;;;;;;;5085124;28;20028;-59
2021/08/29 11:04:18;;;;;;;1.25;0.82;;;;;;;;;;5095719;28;20032;-57
2021/08/29 11:06:50;;;;;;;0.95;0.95;;;;;;;;;;5092699;28;20687;-57
2021/08/29 11:09:41;;;;;;;1.25;1.15;;;;;;;;;;5093754;28;20035;-59
2021/08/29 11:12:26;;;;;;;1.27;0.82;;;;;;;;;;5093317;28;20028;-59
2021/08/29 11:14:56;;;;;;;0.60;0.50;;;;;;;;;;5101605;28;20054;-58
2021/08/29 11:17:22;;;;;;;0.88;0.88;;;;;;;;;;5097443;28;20020;-59
2021/08/29 11:19:48;;;;;;;0.60;0.60;;;;;;;;;;5092849;28;20081;-58
2021/08/29 11:22:18;;;;;;;0.50;0.50;;;;;;;;;;5092550;28;20020;-59
2021/08/29 11:24:51;;;;;;;0.60;0.50;;;;;;;;;;5100632;28;20037;-59
2021/08/29 11:27:34;;;;;;;0.40;0.40;;;;;;;;;;5111943;28;20012;-59
2021/08/29 11:30:21;;;;;;;0.73;0.30;;;;;;;;;;5113451;28;20027;-59
2021/08/29 11:32:53;;;;;;;0.50;0.40;;;;;;;;;;5083419;28;20086;-58
2021/08/29 11:35:21;;;;;;;0.70;0.38;;;;;;;;;;5094820;28;20390;-58
2021/08/29 11:38:05;;;;;;;0.60;0.50;;;;;;;;;;5092260;28;20059;-58
2021/08/29 11:40:50;;;;;;;0.50;0.50;;;;;;;;;;5092156;28;20066;-58
2021/08/29 11:43:27;;;;;;;0.50;0.50;;;;;;;;;;5092553;28;20383;-58
2021/08/29 11:46:01;;;;;;;0.68;0.25;;;;;;;;;;5108293;28;20038;-58
2021/08/29 11:48:31;;;;;;;0.70;0.30;;;;;;;;;;5072216;28;20414;-59
2021/08/29 11:50:56;;;;;;;0.30;0.30;;;;;;;;;;5086183;28;20065;-58
2021/08/29 11:53:21;;;;;;;0.32;0.30;;;;;;;;;;5091881;28;20028;-58
2021/08/29 11:55:47;;;;;;;0.30;0.30;;;;;;;;;;5092261;28;20052;-59
2021/08/29 11:58:17;;;;;;;0.30;0.30;;;;;;;;;;5092279;28;20090;-59
2021/08/29 12:00:42;;;;;;;0.80;0.35;;;;;;;;;;5073845;28;20440;-59
2021/08/29 12:03:07;;;;;;;0.20;0.20;;;;;;;;;;5093254;28;20113;-59
2021/08/29 12:05:33;;;;;;;0.33;0.30;;;;;;;;;;5104221;28;20035;-59
2021/08/29 12:08:01;;;;;;;0.57;0.30;;;;;;;;;;5111282;28;20277;-59
2021/08/29 12:10:26;;;;;;;0.25;0.25;;;;;;;;;;5100837;28;20086;-58
2021/08/29 12:12:52;;;;;;;0.20;0.20;;;;;;;;;;5091772;28;20024;-59
2021/08/29 12:15:17;;;;;;;0.20;0.20;;;;;;;;;;5100538;28;20020;-59
2021/08/29 12:17:43;;;;;;;0.50;0.35;;;;;;;;;;5092054;28;20012;-59
2021/08/29 12:20:09;;;;;;;0.30;0.30;;;;;;;;;;5098226;28;20035;-59
2021/08/29 12:22:35;;;;;;;0.22;0.20;;;;;;;;;;5092265;28;20023;-59
2021/08/29 12:25:00;;;;;;;0.20;0.20;;;;;;;;;;5091835;28;20043;-59
2021/08/29 12:27:26;;;;;;;0.20;0.20;;;;;;;;;;5091568;28;20055;-59
2021/08/29 12:29:52;;;;;;;0.20;0.20;;;;;;;;;;5104835;28;20016;-59
2021/08/29 12:32:19;;;;;;;0.40;0.30;;;;;;;;;;5094089;28;20027;-59
2021/08/29 12:34:51;;;;;;;0.40;0.20;;;;;;;;;;5073544;28;20039;-59
2021/08/29 12:37:16;;;;;;;0.77;0.20;;;;;;;;;;5091471;28;20016;-59
2021/08/29 12:39:53;;;;;;;0.30;0.30;;;;;;;;;;5095646;28;20023;-59
2021/08/29 12:42:19;;;;;;;1.05;0.20;;;;;;;;;;5099896;28;20011;-59
2021/08/29 12:44:45;;;;;;;2.40;0.30;;;;;;;;;;5101704;28;20470;-58
2021/08/29 12:47:10;;;;;;;0.20;0.20;;;;;;;;;;5091520;28;20052;-59
2021/08/29 12:49:36;;;;;;;0.30;0.20;;;;;;;;;;5069692;28;20028;-59
2021/08/29 12:52:02;;;;;;;0.52;0.30;;;;;;;;;;5083371;28;20262;-59
2021/08/29 12:54:27;;;;;;;1.50;0.20;;;;;;;;;;5091395;28;20348;-59
2021/08/29 12:56:52;;;;;;;0.20;0.20;;;;;;;;;;5091019;28;20069;-57
2021/08/29 12:59:27;;;;;;;0.20;0.20;;;;;;;;;;5091496;28;20130;-59
2021/08/29 13:01:53;;;;;;;0.40;0.20;;;;;;;;;;5090843;28;20016;-59
2021/08/29 13:04:26;;;;;;;0.30;0.30;;;;;;;;;;5107398;28;20516;-59
2021/08/29 13:07:01;;;;;;;0.30;0.30;;;;;;;;;;5111352;28;20020;-59
2021/08/29 13:09:27;;;;;;;0.30;0.30;;;;;;;;;;5102991;28;20044;-59
2021/08/29 13:11:53;;;;;;;0.30;0.30;;;;;;;;;;5091316;28;20055;-59
2021/08/29 13:14:28;;;;;;;0.20;0.20;;;;;;;;;;5092403;28;20016;-59
2021/08/29 13:16:53;;;;;;;0.30;0.30;;;;;;;;;;5101619;28;20077;-59
2021/08/29 13:19:27;;;;;;;0.40;0.30;;;;;;;;;;5093554;28;20020;-59
2021/08/29 13:21:52;;;;;;;;;;;;;;;;;;5091411;28;20073;-59
2021/08/29 13:24:28;;;;;;;0.95;0.30;;;;;;;;;;5091492;28;19904;-59
2021/08/29 13:26:54;;;;;;;0.82;0.30;;;;;;;;;;5095273;28;20107;-59
2021/08/29 13:29:19;;;;;;;0.68;0.20;;;;;;;;;;5095197;28;20048;-58
2021/08/29 13:31:46;;;;;;;0.20;0.20;;;;;;;;;;5094943;28;20031;-59
2021/08/29 13:34:11;;;;;;;0.38;0.20;;;;;;;;;;5108700;28;20027;-58
2021/08/29 13:36:44;;;;;;;0.40;0.30;;;;;;;;;;5096738;28;20427;-60
2021/08/29 13:39:11;;;;;;;0.20;0.20;;;;;;;;;;5094663;28;20756;-59
2021/08/29 13:41:36;;;;;;;0.20;0.20;;;;;;;;;;5094107;28;20031;-58
2021/08/29 13:44:01;;;;;;;0.20;0.20;;;;;;;;;;5104613;28;20024;-58
2021/08/29 13:46:27;;;;;;;0.53;0.30;;;;;;;;;;5094885;28;20027;-58
2021/08/29 13:48:53;;;;;;;0.32;0.30;;;;;;;;;;5094848;28;20061;-59
2021/08/29 13:51:19;;;;;;;0.32;0.32;;;;;;;;;;5094288;28;20020;-59
2021/08/29 13:53:45;;;;;;;0.20;0.20;;;;;;;;;;5095579;28;20028;-59
2021/08/29 13:56:10;;;;;;;0.60;0.20;;;;;;;;;;5094368;28;20399;-58
2021/08/29 13:58:36;;;;;;;0.60;0.22;;;;;;;;;;5100457;28;20270;-59
2021/08/29 14:01:01;;;;;;;0.30;0.20;;;;;;;;;;5094618;28;20012;-59
2021/08/29 14:03:26;;;;;;;0.20;0.20;;;;;;;;;;5094398;28;20020;-59
2021/08/29 14:05:52;;;;;;;0.22;0.20;;;;;;;;;;5093754;28;20276;-59
2021/08/29 14:08:17;;;;;;;0.20;0.20;;;;;;;;;;5094410;28;20020;-59
2021/08/29 14:10:43;;;;;;;0.47;0.20;;;;;;;;;;5094288;28;20286;-59
2021/08/29 14:13:08;;;;;;;0.20;0.20;;;;;;;;;;5092364;28;20028;-60
2021/08/29 14:15:33;;;;;;;0.20;0.20;;;;;;;;;;5094200;28;20061;-59
2021/08/29 14:17:59;;;;;;;0.20;0.20;;;;;;;;;;5093824;28;20020;-59
2021/08/29 14:20:24;;;;;;;0.40;0.20;;;;;;;;;;5093598;28;20028;-59
2021/08/29 14:22:49;;;;;;;0.30;0.30;;;;;;;;;;5094753;28;20028;-59
2021/08/29 14:25:15;;;;;;;0.13;0.10;;;;;;;;;;5094355;28;20054;-59
2021/08/29 14:27:49;;;;;;;0.20;0.20;;;;;;;;;;5099542;28;20036;-59
2021/08/29 14:30:14;;;;;;;0.25;0.20;;;;;;;;;;5094248;28;20027;-58